createdAt,value
2022-08-16T00:00:38.461Z,99654.18
2022-08-16T00:03:53.445Z,99655.47
2022-08-16T00:06:42.327Z,99654.37
2022-08-16T00:09:20.386Z,99654.77
2022-08-16T00:12:18.039Z,99651.39
2022-08-16T00:15:05.496Z,99650.95
2022-08-16T00:18:12.164Z,99649.19
2022-08-16T00:20:59.922Z,99648.10
2022-08-16T00:23:47.427Z,99649.60
2022-08-16T00:26:35.345Z,99654.02
2022-08-16T00:29:18.864Z,99654.73
2022-08-16T00:32:23.811Z,99661.98
2022-08-16T00:35:15.111Z,99666.49
2022-08-16T00:38:40.709Z,99662.90
2022-08-16T00:41:17.396Z,99668.76
2022-08-16T00:44:10.441Z,99669.65
2022-08-16T00:47:11.166Z,99671.09
2022-08-16T00:49:56.541Z,99673.59
2022-08-16T00:52:55.889Z,99672.20
2022-08-16T00:55:38.091Z,99672.31
2022-08-16T00:58:18.613Z,99675.58
2022-08-16T01:01:26.541Z,99667.19
2022-08-16T01:04:29.341Z,99669.40
2022-08-16T01:07:27.368Z,99669.02
2022-08-16T01:10:41.001Z,99668.52
2022-08-16T01:13:35.487Z,99668.36
2022-08-16T01:16:29.120Z,99665.17
2022-08-16T01:19:23.462Z,99666.45
2022-08-16T01:22:47.466Z,99667.15
2022-08-16T01:25:41.515Z,99660.48
2022-08-16T01:28:38.855Z,99661.29
2022-08-16T01:31:31.048Z,99655.81
2022-08-16T01:34:04.652Z,99648.38
2022-08-16T01:36:55.103Z,99643.04
2022-08-16T01:39:43.051Z,99636.93
2022-08-16T01:42:22.974Z,99642.52
2022-08-16T01:45:06.081Z,99637.00
2022-08-16T01:47:49.226Z,99632.73
2022-08-16T01:50:42.407Z,99632.38
2022-08-16T01:53:26.049Z,99629.66
2022-08-16T01:56:01.402Z,99629.84
2022-08-16T01:58:34.445Z,99625.45
2022-08-16T02:01:40.790Z,99624.23
2022-08-16T02:04:48.665Z,99623.55
2022-08-16T02:07:45.179Z,99620.81
2022-08-16T02:10:40.737Z,99617.73
2022-08-16T02:13:27.801Z,99609.39
2022-08-16T02:16:05.923Z,99615.59
2022-08-16T02:19:21.251Z,99610.15
2022-08-16T02:22:33.659Z,99612.30
2022-08-16T02:25:50.734Z,99613.73
2022-08-16T02:29:05.341Z,99612.96
2022-08-16T02:32:03.841Z,99615.19
2022-08-16T02:35:10.368Z,99618.45
2022-08-16T02:38:01.468Z,99615.69
2022-08-16T02:40:35.078Z,99610.58
2022-08-16T02:43:37.782Z,99612.79
2022-08-16T02:46:30.148Z,99612.95
2022-08-16T02:49:58.500Z,99612.30
2022-08-16T02:52:35.382Z,99613.78
2022-08-16T02:55:41.345Z,99614.00
2022-08-16T02:58:29.113Z,99617.23
2022-08-16T03:01:02.227Z,99615.76
2022-08-16T03:04:41.351Z,99612.77
2022-08-16T03:06:42.778Z,99615.09
2022-08-16T03:10:08.290Z,99615.31
2022-08-16T03:12:55.881Z,99616.76
2022-08-16T03:15:45.306Z,99617.19
2022-08-16T03:18:42.468Z,99612.00
2022-08-16T03:21:37.747Z,99613.04
2022-08-16T03:24:29.903Z,99615.70
2022-08-16T03:27:11.325Z,99618.77
2022-08-16T03:29:54.542Z,99622.36
2022-08-16T03:33:08.159Z,99621.84
2022-08-16T03:35:48.154Z,99622.77
2022-08-16T03:38:34.969Z,99620.85
2022-08-16T03:41:25.314Z,99616.04
2022-08-16T03:44:43.333Z,99620.33
2022-08-16T03:47:19.058Z,99618.52
2022-08-16T03:50:26.159Z,99616.64
2022-08-16T03:53:06.050Z,99625.24
2022-08-16T03:56:03.485Z,99631.13
2022-08-16T03:58:42.643Z,99638.42
2022-08-16T04:01:29.870Z,99645.36
2022-08-16T04:04:10.664Z,99650.20
2022-08-16T04:06:56.050Z,99652.13
2022-08-16T04:09:57.038Z,99652.34
2022-08-16T04:12:53.648Z,99646.23
2022-08-16T04:15:38.880Z,99647.35
2022-08-16T04:18:32.116Z,99647.56
2022-08-16T04:21:04.117Z,99649.73
2022-08-16T04:23:41.472Z,99654.10
2022-08-16T04:26:24.312Z,99647.32
2022-08-16T04:29:43.751Z,99648.90
2022-08-16T04:32:30.841Z,99645.30
2022-08-16T04:35:23.987Z,99651.08
2022-08-16T04:37:58.372Z,99650.63
2022-08-16T04:40:37.990Z,99655.77
2022-08-16T04:43:29.377Z,99653.77
2022-08-16T04:46:19.745Z,99656.39
2022-08-16T04:49:18.737Z,99658.67
2022-08-16T04:51:53.855Z,99659.58
2022-08-16T04:54:52.871Z,99657.69
2022-08-16T04:57:53.378Z,99660.30
2022-08-16T05:00:32.867Z,99663.80
2022-08-16T05:03:24.108Z,99660.55
2022-08-16T05:06:45.178Z,99667.30
2022-08-16T05:10:19.655Z,99670.16
2022-08-16T05:13:24.317Z,99674.20
2022-08-16T05:16:44.082Z,99680.95
2022-08-16T05:19:36.095Z,99682.09
2022-08-16T05:22:34.311Z,99683.77
2022-08-16T05:25:19.305Z,99680.75
2022-08-16T05:28:11.870Z,99681.70
2022-08-16T05:30:45.992Z,99679.48
2022-08-16T05:33:32.721Z,99679.76
2022-08-16T05:36:20.924Z,99682.20
2022-08-16T05:39:05.165Z,99681.95
2022-08-16T05:42:05.349Z,99686.98
2022-08-16T05:44:54.414Z,99689.48
2022-08-16T05:48:02.451Z,99691.85
2022-08-16T05:51:00.136Z,99692.16
2022-08-16T05:53:29.399Z,99689.32
2022-08-16T05:56:50.054Z,99689.05
2022-08-16T05:59:32.235Z,99687.00
2022-08-16T06:02:24.481Z,99684.50
2022-08-16T06:05:11.480Z,99682.54
2022-08-16T06:07:58.201Z,99682.38
2022-08-16T06:10:33.353Z,99683.23
2022-08-16T06:13:17.378Z,99685.08
2022-08-16T06:15:58.583Z,99681.95
2022-08-16T06:18:50.618Z,99674.19
2022-08-16T06:21:42.780Z,99681.52
2022-08-16T06:25:04.507Z,99684.34
2022-08-16T06:27:40.690Z,99680.06
2022-08-16T06:30:22.717Z,99677.61
2022-08-16T06:33:12.392Z,99677.54
2022-08-16T06:36:05.179Z,99675.42
2022-08-16T06:38:55.878Z,99676.09
2022-08-16T06:41:43.733Z,99677.83
2022-08-16T06:44:34.013Z,99679.30
2022-08-16T06:47:11.399Z,99678.31
2022-08-16T06:50:10.070Z,99686.00
2022-08-16T06:53:23.719Z,99689.11
2022-08-16T06:56:06.673Z,99691.25
2022-08-16T06:59:18.293Z,99687.52
2022-08-16T07:01:58.253Z,99687.05
2022-08-16T07:04:48.591Z,99689.04
2022-08-16T07:07:34.583Z,99686.23
2022-08-16T07:10:35.257Z,99686.58
2022-08-16T07:14:00.332Z,99684.55
2022-08-16T07:16:38.746Z,99684.52
2022-08-16T07:19:18.784Z,99688.70
2022-08-16T07:22:02.049Z,99687.17
2022-08-16T07:25:06.437Z,99687.77
2022-08-16T07:27:53.842Z,99689.12
2022-08-16T07:31:05.860Z,99686.03
2022-08-16T07:33:53.276Z,99682.38
2022-08-16T07:36:35.506Z,99676.98
2022-08-16T07:39:14.683Z,99675.69
2022-08-16T07:41:56.448Z,99677.89
2022-08-16T07:44:50.281Z,99674.05
2022-08-16T07:47:34.474Z,99675.37
2022-08-16T07:50:57.137Z,99674.80
2022-08-16T07:53:22.461Z,99672.77
2022-08-16T07:55:58.584Z,99674.33
2022-08-16T07:58:34.134Z,99680.07
2022-08-16T08:01:25.096Z,99680.71
2022-08-16T08:04:14.937Z,99675.33
2022-08-16T08:06:59.695Z,99674.04
2022-08-16T08:09:53.089Z,99672.60
2022-08-16T08:12:31.227Z,99676.58
2022-08-16T08:15:34.676Z,99682.65
2022-08-16T08:18:30.017Z,99685.48
2022-08-16T08:21:04.553Z,99683.96
2022-08-16T08:24:03.896Z,99687.98
2022-08-16T08:26:59.233Z,99684.98
2022-08-16T08:29:40.494Z,99682.27
2022-08-16T08:32:57.003Z,99684.36
2022-08-16T08:35:36.624Z,99686.56
2022-08-16T08:38:43.569Z,99689.29
2022-08-16T08:41:37.530Z,99694.82
2022-08-16T08:44:28.407Z,99698.84
2022-08-16T08:47:13.630Z,99700.23
2022-08-16T08:50:04.382Z,99702.98
2022-08-16T08:52:45.133Z,99702.52
2022-08-16T08:55:23.182Z,99701.92
2022-08-16T08:58:01.221Z,99706.96
2022-08-16T09:00:55.619Z,99708.25
2022-08-16T09:03:33.000Z,99700.99
2022-08-16T09:06:20.117Z,99701.25
2022-08-16T09:08:59.338Z,99698.92
2022-08-16T09:12:06.273Z,99701.42
2022-08-16T09:15:01.916Z,99697.39
2022-08-16T09:17:51.788Z,99695.86
2022-08-16T09:20:35.511Z,99702.45
2022-08-16T09:23:38.435Z,99703.22
2022-08-16T09:26:44.865Z,99707.80
2022-08-16T09:29:44.843Z,99708.58
2022-08-16T09:32:28.831Z,99712.52
2022-08-16T09:35:53.545Z,99712.43
2022-08-16T09:38:38.749Z,99708.20
2022-08-16T09:41:35.528Z,99709.88
2022-08-16T09:45:11.371Z,99706.19
2022-08-16T09:47:57.425Z,99713.98
2022-08-16T09:51:11.012Z,99715.48
2022-08-16T09:53:53.927Z,99720.83
2022-08-16T09:56:54.525Z,99719.79
2022-08-16T09:59:56.267Z,99721.86
2022-08-16T10:02:44.272Z,99728.67
2022-08-16T10:05:33.633Z,99733.22
2022-08-16T10:08:26.456Z,99737.02
2022-08-16T10:11:49.847Z,99738.20
2022-08-16T10:15:07.970Z,99737.77
2022-08-16T10:19:00.121Z,99743.69
2022-08-16T10:21:35.316Z,99746.32
2022-08-16T10:24:28.515Z,99744.10
2022-08-16T10:27:26.738Z,99747.48
2022-08-16T10:30:28.369Z,99751.16
2022-08-16T10:33:04.110Z,99747.95
2022-08-16T10:35:46.785Z,99752.23
2022-08-16T10:38:38.132Z,99751.92
2022-08-16T10:41:16.170Z,99747.41
2022-08-16T10:43:59.377Z,99746.65
2022-08-16T10:46:41.817Z,99749.39
2022-08-16T10:49:24.615Z,99755.36
2022-08-16T10:52:18.921Z,99758.61
2022-08-16T10:58:33.951Z,99767.12
2022-08-16T11:07:43.328Z,99776.42
2022-08-16T11:14:11.223Z,99778.19
2022-08-16T11:17:01.967Z,99774.55
2022-08-16T11:22:49.144Z,99777.52
2022-08-16T11:29:12.676Z,99781.57
2022-08-16T11:31:53.927Z,99779.31
2022-08-16T11:35:10.472Z,99782.19
2022-08-16T11:38:24.094Z,99785.07
2022-08-16T11:40:56.837Z,99782.69
2022-08-16T11:43:47.085Z,99782.83
2022-08-16T11:46:44.658Z,99783.42
2022-08-16T11:49:39.774Z,99781.58
2022-08-16T11:52:23.825Z,99781.43
2022-08-16T11:55:23.598Z,99776.76
2022-08-16T11:58:12.593Z,99777.03
2022-08-16T12:01:29.560Z,99777.57
2022-08-16T12:04:20.891Z,99776.14
2022-08-16T12:07:01.342Z,99774.05
2022-08-16T12:09:34.855Z,99774.39
2022-08-16T12:12:18.580Z,99767.56
2022-08-16T12:15:14.117Z,99765.57
2022-08-16T12:17:49.515Z,99765.38
2022-08-16T12:20:35.133Z,99763.19
2022-08-16T12:23:27.808Z,99760.13
2022-08-16T12:26:10.385Z,99758.34
2022-08-16T12:28:54.611Z,99757.77
2022-08-16T12:31:59.301Z,99752.64
2022-08-16T12:34:53.131Z,99748.48
2022-08-16T12:37:33.812Z,99744.62
2022-08-16T12:40:23.860Z,99744.16
2022-08-16T12:43:08.313Z,99739.37
2022-08-16T12:45:44.912Z,99740.98
2022-08-16T12:48:44.699Z,99737.61
2022-08-16T12:51:46.800Z,99737.80
2022-08-16T12:54:29.724Z,99735.40
2022-08-16T12:57:36.456Z,99732.02
2022-08-16T13:00:28.705Z,99727.06
2022-08-16T13:03:04.619Z,99723.15
2022-08-16T13:05:56.009Z,99723.35
2022-08-16T13:08:34.433Z,99722.55
2022-08-16T13:14:32.963Z,99711.48
2022-08-16T13:17:17.128Z,99702.95
2022-08-16T13:20:07.670Z,99707.23
2022-08-16T13:23:11.074Z,99696.02
2022-08-16T13:25:52.716Z,99697.32
2022-08-16T13:28:40.052Z,99691.48
2022-08-16T13:31:54.752Z,99689.41
2022-08-16T13:34:51.289Z,99686.70
2022-08-16T13:37:20.623Z,99681.92
2022-08-16T13:40:09.209Z,99681.84
2022-08-16T13:42:57.215Z,99678.24
2022-08-16T13:45:38.533Z,99683.09
2022-08-16T13:48:42.730Z,99681.90
2022-08-16T13:51:19.716Z,99681.65
2022-08-16T13:57:03.763Z,99680.17
2022-08-16T13:59:42.682Z,99679.33
2022-08-16T14:02:13.654Z,99678.58
2022-08-16T14:05:05.267Z,99678.50
2022-08-16T14:07:50.666Z,99681.09
2022-08-16T14:10:38.667Z,99676.22
2022-08-16T14:13:21.077Z,99676.12
2022-08-16T14:16:05.116Z,99679.69
2022-08-16T14:18:55.082Z,99679.27
2022-08-16T14:21:34.869Z,99676.52
2022-08-16T14:24:22.507Z,99668.56
2022-08-16T14:27:16.179Z,99665.20
2022-08-16T14:29:50.612Z,99663.84
2022-08-16T14:32:34.104Z,99664.73
2022-08-16T14:35:14.520Z,99658.64
2022-08-16T14:37:57.183Z,99660.48
2022-08-16T14:40:47.178Z,99658.20
2022-08-16T14:43:52.942Z,99655.77
2022-08-16T14:46:25.119Z,99655.60
2022-08-16T14:49:10.906Z,99648.50
2022-08-16T14:51:45.930Z,99652.05
2022-08-16T14:54:37.280Z,99655.95
2022-08-16T14:57:42.423Z,99659.80
2022-08-16T15:00:32.978Z,99658.10
2022-08-16T15:03:25.025Z,99657.15
2022-08-16T15:06:21.787Z,99655.50
2022-08-16T15:09:14.587Z,99659.45
2022-08-16T15:11:59.451Z,99653.79
2022-08-16T15:14:42.959Z,99652.99
2022-08-16T15:17:39.511Z,99645.71
2022-08-16T15:20:18.839Z,99645.17
2022-08-16T15:23:01.547Z,99650.05
2022-08-16T15:26:03.132Z,99648.36
2022-08-16T15:28:39.518Z,99650.20
2022-08-16T15:31:24.443Z,99656.39
2022-08-16T15:34:13.136Z,99660.13
2022-08-16T15:36:54.701Z,99656.45
2022-08-16T15:39:30.346Z,99660.71
2022-08-16T15:42:28.832Z,99665.13
2022-08-16T15:45:55.970Z,99668.11
2022-08-16T15:48:33.835Z,99666.46
2022-08-16T15:51:07.285Z,99667.05
2022-08-16T15:54:20.970Z,99666.95
2022-08-16T15:57:11.580Z,99666.45
2022-08-16T15:59:59.314Z,99669.03
2022-08-16T16:03:12.881Z,99676.77
2022-08-16T16:05:56.998Z,99677.71
2022-08-16T16:08:56.795Z,99681.96
2022-08-16T16:11:42.534Z,99685.89
2022-08-16T16:14:27.888Z,99691.49
2022-08-16T16:17:16.751Z,99695.77
2022-08-16T16:20:16.201Z,99697.36
2022-08-16T16:23:15.472Z,99696.48
2022-08-16T16:26:07.929Z,99694.42
2022-08-16T16:29:10.814Z,99695.52
2022-08-16T16:32:00.054Z,99703.67
2022-08-16T16:34:35.655Z,99701.67
2022-08-16T16:37:09.601Z,99707.13
2022-08-16T16:39:49.977Z,99707.73
2022-08-16T16:42:49.143Z,99712.21
2022-08-16T16:45:48.930Z,99711.48
2022-08-16T16:48:34.912Z,99712.77
2022-08-16T16:51:23.293Z,99713.61
2022-08-16T16:54:27.472Z,99715.37
2022-08-16T16:57:30.834Z,99714.65
2022-08-16T17:00:30.491Z,99714.84
2022-08-16T17:03:17.490Z,99719.42
2022-08-16T17:06:03.208Z,99720.68
2022-08-16T17:08:46.114Z,99731.27
2022-08-16T17:11:19.200Z,99732.11
2022-08-16T17:14:06.176Z,99729.48
2022-08-16T17:17:14.879Z,99732.55
2022-08-16T17:19:59.244Z,99737.46
2022-08-16T17:22:41.556Z,99745.20
2022-08-16T17:25:36.384Z,99745.10
2022-08-16T17:28:57.717Z,99744.30
2022-08-16T17:31:52.900Z,99736.15
2022-08-16T17:34:34.918Z,99739.27
2022-08-16T17:37:58.701Z,99739.30
2022-08-16T17:40:50.425Z,99739.77
2022-08-16T17:43:56.438Z,99742.12
2022-08-16T17:46:41.376Z,99742.59
2022-08-16T17:49:30.750Z,99748.06
2022-08-16T17:52:08.013Z,99750.11
2022-08-16T17:55:03.227Z,99747.74
2022-08-16T17:57:31.808Z,99743.30
2022-08-16T18:00:30.384Z,99747.84
2022-08-16T18:03:54.376Z,99748.59
2022-08-16T18:06:18.258Z,99747.52
2022-08-16T18:09:10.944Z,99748.07
2022-08-16T18:11:54.890Z,99742.40
2022-08-16T18:14:52.035Z,99745.88
2022-08-16T18:17:32.805Z,99750.40
2022-08-16T18:20:01.137Z,99751.14
2022-08-16T18:23:09.351Z,99755.23
2022-08-16T18:25:58.476Z,99755.05
2022-08-16T18:28:42.489Z,99756.27
2022-08-16T18:31:19.209Z,99756.64
2022-08-16T18:33:56.367Z,99755.05
2022-08-16T18:36:42.265Z,99753.44
2022-08-16T18:39:41.911Z,99749.67
2022-08-16T18:42:40.779Z,99749.27
2022-08-16T18:45:24.311Z,99754.08
2022-08-16T18:48:36.210Z,99752.98
2022-08-16T18:54:04.558Z,99748.98
2022-08-16T18:56:58.773Z,99752.70
2022-08-16T18:59:56.412Z,99758.04
2022-08-16T19:02:43.608Z,99754.42
2022-08-16T19:05:48.616Z,99755.45
2022-08-16T19:08:38.411Z,99757.67
2022-08-16T19:11:40.677Z,99760.43
2022-08-16T19:14:27.376Z,99763.73
2022-08-16T19:17:12.640Z,99765.63
2022-08-16T19:19:51.895Z,99765.25
2022-08-16T19:23:02.173Z,99767.37
2022-08-16T19:25:53.119Z,99771.15
2022-08-16T19:28:52.087Z,99768.94
2022-08-16T19:31:37.744Z,99768.22
2022-08-16T19:34:17.326Z,99774.09
2022-08-16T19:36:57.154Z,99774.94
2022-08-16T19:39:36.885Z,99775.56
2022-08-16T19:42:30.548Z,99780.66
2022-08-16T19:45:05.390Z,99776.54
2022-08-16T19:48:17.992Z,99777.46
2022-08-16T19:51:00.900Z,99779.42
2022-08-16T19:53:31.137Z,99777.09
2022-08-16T19:56:09.398Z,99779.60
2022-08-16T19:59:17.588Z,99778.55
2022-08-16T20:01:55.010Z,99779.25
2022-08-16T20:04:26.186Z,99777.60
2022-08-16T20:06:54.874Z,99782.11
2022-08-16T20:09:24.558Z,99779.67
2022-08-16T20:12:07.631Z,99786.46
2022-08-16T20:14:59.516Z,99791.23
2022-08-16T20:17:45.142Z,99789.75
2022-08-16T20:20:34.880Z,99794.05
2022-08-16T20:23:24.488Z,99793.72
2022-08-16T20:26:16.912Z,99789.89
2022-08-16T20:28:55.442Z,99788.75
2022-08-16T20:31:49.088Z,99790.35
2022-08-16T20:34:24.739Z,99790.84
2022-08-16T20:37:15.002Z,99788.86
2022-08-16T20:40:28.321Z,99794.61
2022-08-16T20:43:50.811Z,99795.33
2022-08-16T20:46:46.431Z,99804.16
2022-08-16T20:49:18.458Z,99795.06
2022-08-16T20:52:06.442Z,99791.11
2022-08-16T20:54:59.758Z,99789.85
2022-08-16T20:57:30.516Z,99786.92
2022-08-16T20:59:58.965Z,99785.30
2022-08-16T21:03:12.084Z,99786.46
2022-08-16T21:06:11.211Z,99786.20
2022-08-16T21:08:53.350Z,99783.25
2022-08-16T21:11:34.675Z,99777.81
2022-08-16T21:14:22.703Z,99780.41
2022-08-16T21:17:11.836Z,99777.81
2022-08-16T21:19:59.955Z,99775.69
2022-08-16T21:23:00.866Z,99772.77
2022-08-16T21:25:58.922Z,99773.63
2022-08-16T21:28:48.032Z,99774.98
2022-08-16T21:31:54.929Z,99778.85
2022-08-16T21:34:52.609Z,99771.53
2022-08-16T21:37:35.704Z,99771.91
2022-08-16T21:40:15.395Z,99774.27
2022-08-16T21:42:53.787Z,99779.33
2022-08-16T21:46:01.567Z,99786.12
2022-08-16T21:52:37.715Z,99787.25
2022-08-16T21:55:21.433Z,99787.88
2022-08-16T21:58:18.627Z,99787.45
2022-08-16T22:01:40.661Z,99785.65
2022-08-16T22:07:40.187Z,99790.49
2022-08-16T22:11:07.091Z,99790.91
2022-08-16T22:13:57.724Z,99790.34
2022-08-16T22:16:50.059Z,99790.15
2022-08-16T22:19:32.678Z,99790.67
2022-08-16T22:22:35.213Z,99788.83
2022-08-16T22:25:42.608Z,99790.61
2022-08-16T22:28:20.762Z,99792.88
2022-08-16T22:31:07.409Z,99793.14
2022-08-16T22:34:30.707Z,99794.86
2022-08-16T22:38:50.397Z,99794.65
2022-08-16T22:40:46.291Z,99795.11
2022-08-16T22:47:30.292Z,99800.38
2022-08-16T22:50:05.365Z,99801.52
2022-08-16T22:52:55.831Z,99803.02
2022-08-16T22:55:43.712Z,99805.73
2022-08-16T22:58:36.338Z,99803.39
2022-08-16T23:01:51.589Z,99799.95
2022-08-16T23:04:41.820Z,99800.81
2022-08-16T23:07:34.568Z,99800.41
2022-08-16T23:10:03.946Z,99793.92
2022-08-16T23:12:55.739Z,99792.60
2022-08-16T23:15:59.254Z,99786.77
2022-08-16T23:18:50.494Z,99782.67
2022-08-16T23:21:39.169Z,99786.20
2022-08-16T23:24:37.179Z,99784.52
2022-08-16T23:27:42.358Z,99784.38
2022-08-16T23:30:41.259Z,99782.47
2022-08-16T23:33:21.997Z,99784.30
2022-08-16T23:39:18.284Z,99783.73
2022-08-16T23:42:04.446Z,99785.20
2022-08-16T23:47:36.863Z,99785.40
2022-08-16T23:50:43.881Z,99779.91
2022-08-16T23:53:30.804Z,99777.13
2022-08-16T23:56:29.987Z,99771.39
2022-08-16T23:59:15.847Z,99768.94
